createdAt,value
2022-11-06T00:01:50.062Z,36.67
2022-11-06T00:03:53.104Z,38.15
2022-11-06T00:06:13.702Z,40.55
2022-11-06T00:08:16.519Z,39.45
2022-11-06T00:12:21.072Z,36.75
2022-11-06T00:14:22.898Z,37.55
2022-11-06T00:16:24.747Z,37.88
2022-11-06T00:18:27.671Z,37.80
2022-11-06T00:20:29.531Z,34.33
2022-11-06T00:22:37.553Z,35.92
2022-11-06T00:24:39.751Z,32.88
2022-11-06T00:26:42.705Z,34.38
2022-11-06T00:28:44.983Z,41.08
2022-11-06T00:30:47.316Z,33.78
2022-11-06T00:32:49.146Z,62.58
2022-11-06T00:34:51.080Z,35.50
2022-11-06T00:36:53.266Z,38.00
2022-11-06T00:38:56.131Z,36.40
2022-11-06T00:41:01.687Z,34.72
2022-11-06T00:43:03.925Z,36.58
2022-11-06T00:45:06.266Z,33.15
2022-11-06T00:47:08.692Z,43.80
2022-11-06T00:49:10.899Z,36.05
2022-11-06T00:51:15.755Z,34.40
2022-11-06T00:53:17.631Z,43.10
2022-11-06T00:55:19.858Z,39.97
2022-11-06T00:57:21.860Z,33.03
2022-11-06T00:59:23.729Z,40.22
2022-11-06T01:01:31.151Z,31.15
2022-11-06T01:03:33.236Z,58.40
2022-11-06T01:05:35.067Z,36.55
2022-11-06T01:07:37.399Z,32.88
2022-11-06T01:09:39.296Z,34.05
2022-11-06T01:12:10.915Z,39.78
2022-11-06T01:14:09.180Z,31.98
2022-11-06T01:16:14.760Z,41.85
2022-11-06T01:18:16.604Z,34.55
2022-11-06T01:20:18.791Z,35.10
2022-11-06T01:22:20.596Z,42.55
2022-11-06T01:24:27.992Z,32.55
2022-11-06T01:26:38.261Z,35.63
2022-11-06T01:28:41.340Z,38.33
2022-11-06T01:30:43.291Z,41.40
2022-11-06T01:32:45.650Z,38.22
2022-11-06T01:34:49.630Z,37.97
2022-11-06T01:36:51.542Z,36.28
2022-11-06T01:38:56.679Z,29.60
2022-11-06T01:40:58.640Z,35.47
2022-11-06T01:43:00.475Z,35.55
2022-11-06T01:45:26.885Z,37.63
2022-11-06T01:47:29.789Z,38.90
2022-11-06T01:49:36.630Z,41.85
2022-11-06T01:51:44.584Z,40.10
2022-11-06T01:53:46.548Z,36.08
2022-11-06T01:55:56.268Z,34.03
2022-11-06T01:58:01.721Z,35.70
2022-11-06T02:00:05.624Z,45.22
2022-11-06T02:02:07.824Z,39.75
2022-11-06T02:04:21.457Z,35.88
2022-11-06T02:08:26.178Z,34.65
2022-11-06T02:10:29.687Z,36.00
2022-11-06T02:12:50.162Z,35.58
2022-11-06T02:15:40.110Z,38.08
2022-11-06T02:17:58.251Z,33.92
2022-11-06T02:20:31.698Z,33.88
2022-11-06T02:22:51.794Z,40.88
2022-11-06T02:25:19.234Z,37.70
2022-11-06T02:27:27.181Z,43.03
2022-11-06T02:29:31.585Z,33.50
2022-11-06T02:31:37.605Z,39.92
2022-11-06T02:33:48.917Z,42.03
2022-11-06T02:36:00.547Z,39.53
2022-11-06T02:38:09.994Z,32.40
2022-11-06T02:40:15.205Z,36.90
2022-11-06T02:42:20.046Z,32.60
2022-11-06T02:44:27.142Z,34.85
2022-11-06T02:46:35.386Z,35.85
2022-11-06T02:48:49.146Z,42.08
2022-11-06T02:50:54.850Z,39.30
2022-11-06T02:53:06.262Z,34.40
2022-11-06T02:55:17.986Z,34.70
2022-11-06T02:57:21.646Z,36.58
2022-11-06T02:59:43.526Z,32.75
2022-11-06T03:01:45.407Z,35.90
2022-11-06T03:03:53.448Z,35.03
2022-11-06T03:06:00.834Z,45.10
2022-11-06T03:08:26.525Z,33.28
2022-11-06T03:10:34.110Z,37.85
2022-11-06T03:12:48.009Z,38.65
2022-11-06T03:14:57.332Z,36.05
2022-11-06T03:17:05.437Z,30.08
2022-11-06T03:19:25.558Z,31.45
2022-11-06T03:21:35.273Z,35.60
2022-11-06T03:23:49.178Z,32.22
2022-11-06T03:26:12.670Z,28.98
2022-11-06T03:28:31.988Z,35.53
2022-11-06T03:30:39.168Z,36.63
2022-11-06T03:32:53.958Z,37.53
2022-11-06T03:35:07.133Z,41.85
2022-11-06T03:37:17.260Z,39.30
2022-11-06T03:39:25.746Z,32.47
2022-11-06T03:41:52.714Z,31.83
2022-11-06T03:43:57.974Z,37.17
2022-11-06T03:46:04.346Z,39.22
2022-11-06T03:48:22.417Z,37.47
2022-11-06T03:50:39.037Z,37.28
2022-11-06T03:52:47.007Z,37.63
2022-11-06T03:55:00.687Z,42.47
2022-11-06T03:57:09.520Z,41.78
2022-11-06T03:59:14.504Z,35.63
2022-11-06T04:01:21.268Z,42.53
2022-11-06T04:03:30.780Z,39.95
2022-11-06T04:05:38.295Z,40.05
2022-11-06T04:08:04.345Z,45.33
2022-11-06T04:10:29.797Z,41.92
2022-11-06T04:12:52.641Z,42.80
2022-11-06T04:14:58.457Z,47.75
2022-11-06T04:17:05.046Z,40.15
2022-11-06T04:19:14.871Z,46.15
2022-11-06T04:21:22.523Z,47.53
2022-11-06T04:24:14.489Z,41.15
2022-11-06T04:26:39.298Z,47.05
2022-11-06T04:29:01.437Z,41.80
2022-11-06T04:31:25.373Z,44.92
2022-11-06T04:33:37.830Z,42.67
2022-11-06T04:35:48.392Z,42.95
2022-11-06T04:37:58.935Z,46.25
2022-11-06T04:40:26.060Z,41.80
2022-11-06T04:43:08.169Z,42.45
2022-11-06T04:45:23.989Z,49.38
2022-11-06T04:47:26.415Z,46.33
2022-11-06T04:49:32.941Z,53.65
2022-11-06T04:51:38.093Z,98.10
2022-11-06T04:53:40.782Z,52.25
2022-11-06T04:57:49.474Z,52.22
2022-11-06T04:59:51.366Z,48.53
2022-11-06T05:01:54.120Z,75.57
2022-11-06T05:03:56.173Z,47.10
2022-11-06T05:05:57.978Z,49.58
2022-11-06T05:08:00.249Z,44.42
2022-11-06T05:10:02.271Z,57.33
2022-11-06T05:12:04.204Z,63.37
2022-11-06T05:14:06.691Z,89.22
2022-11-06T05:16:08.586Z,45.73
2022-11-06T05:18:10.989Z,101.15
2022-11-06T05:22:33.970Z,104.20
2022-11-06T05:24:35.856Z,54.60
2022-11-06T05:26:38.178Z,59.83
2022-11-06T05:28:40.190Z,54.92
2022-11-06T05:30:42.059Z,66.40
2022-11-06T05:32:44.287Z,143.20
2022-11-06T05:34:46.955Z,90.28
2022-11-06T05:36:48.819Z,131.02
2022-11-06T05:38:51.522Z,79.55
2022-11-06T05:40:53.371Z,142.00
2022-11-06T05:42:55.242Z,141.43
2022-11-06T05:44:57.406Z,114.07
2022-11-06T05:46:59.294Z,97.05
2022-11-06T05:49:01.187Z,66.75
2022-11-06T05:51:08.049Z,80.40
2022-11-06T05:53:10.181Z,85.95
2022-11-06T05:55:15.108Z,156.23
2022-11-06T05:57:17.757Z,44.13
2022-11-06T05:59:19.610Z,44.60
2022-11-06T06:01:21.525Z,45.05
2022-11-06T06:03:25.135Z,62.55
2022-11-06T06:05:26.983Z,48.08
2022-11-06T06:07:29.259Z,65.43
2022-11-06T06:09:31.593Z,68.28
2022-11-06T06:11:33.602Z,76.30
2022-11-06T06:13:37.490Z,62.80
2022-11-06T06:15:40.841Z,80.95
2022-11-06T06:19:44.527Z,70.57
2022-11-06T06:21:46.693Z,94.07
2022-11-06T06:23:48.591Z,111.70
2022-11-06T06:25:50.666Z,49.83
2022-11-06T06:27:54.665Z,45.70
2022-11-06T06:29:56.585Z,38.83
2022-11-06T06:31:58.423Z,41.50
2022-11-06T06:34:00.649Z,88.47
2022-11-06T06:36:06.276Z,105.63
2022-11-06T06:38:08.239Z,51.05
2022-11-06T06:40:11.162Z,66.45
2022-11-06T06:42:13.021Z,87.93
2022-11-06T06:44:15.614Z,77.05
2022-11-06T06:48:19.802Z,39.78
2022-11-06T06:50:21.665Z,70.63
2022-11-06T06:52:23.929Z,36.33
2022-11-06T06:54:25.745Z,74.30
2022-11-06T06:56:27.601Z,81.22
2022-11-06T06:58:30.530Z,137.07
2022-11-06T07:00:32.341Z,97.00
2022-11-06T07:02:34.235Z,118.35
2022-11-06T07:04:36.494Z,69.95
2022-11-06T07:06:38.317Z,76.40
2022-11-06T07:08:40.233Z,80.78
2022-11-06T07:10:42.507Z,75.38
2022-11-06T07:12:44.386Z,64.07
2022-11-06T07:14:46.397Z,57.13
2022-11-06T07:16:53.446Z,341.83
2022-11-06T07:18:56.322Z,59.33
2022-11-06T07:20:58.320Z,94.82
2022-11-06T07:23:05.630Z,103.85
2022-11-06T07:25:07.896Z,76.40
2022-11-06T07:27:09.838Z,61.00
2022-11-06T07:29:12.108Z,61.33
2022-11-06T07:31:14.020Z,79.70
2022-11-06T07:33:15.920Z,98.13
2022-11-06T07:35:18.113Z,48.90
2022-11-06T07:37:19.963Z,47.58
2022-11-06T07:39:21.815Z,32.25
2022-11-06T07:41:24.083Z,35.22
2022-11-06T07:43:26.874Z,77.05
2022-11-06T07:45:28.734Z,53.28
2022-11-06T07:47:31.150Z,30.07
2022-11-06T07:49:32.997Z,58.87
2022-11-06T07:51:34.983Z,48.60
2022-11-06T07:53:38.218Z,48.75
2022-11-06T07:55:42.394Z,56.08
2022-11-06T07:57:44.563Z,41.55
2022-11-06T07:59:46.733Z,29.65
2022-11-06T08:01:48.784Z,33.58
2022-11-06T08:03:50.892Z,31.05
2022-11-06T08:05:53.055Z,64.78
2022-11-06T08:07:58.053Z,39.00
2022-11-06T08:09:59.930Z,57.53
2022-11-06T08:12:02.613Z,35.28
2022-11-06T08:14:04.476Z,82.35
2022-11-06T08:16:08.786Z,58.08
2022-11-06T08:18:12.046Z,82.47
2022-11-06T08:20:14.266Z,62.95
2022-11-06T08:22:16.104Z,46.65
2022-11-06T08:24:21.883Z,41.10
2022-11-06T08:26:24.286Z,56.38
2022-11-06T08:28:26.885Z,54.90
2022-11-06T08:32:31.280Z,33.22
2022-11-06T08:34:35.450Z,33.03
2022-11-06T08:36:50.183Z,64.07
2022-11-06T08:38:52.128Z,45.20
2022-11-06T08:40:54.135Z,51.67
2022-11-06T08:43:04.375Z,100.45
2022-11-06T08:45:06.795Z,58.45
2022-11-06T08:47:09.148Z,37.75
2022-11-06T08:49:11.453Z,44.22
2022-11-06T08:51:13.260Z,26.73
2022-11-06T08:53:15.641Z,24.80
2022-11-06T08:57:19.827Z,50.30
2022-11-06T08:59:21.739Z,41.25
2022-11-06T09:01:24.358Z,35.83
2022-11-06T09:03:26.325Z,47.45
2022-11-06T09:05:29.740Z,31.70
2022-11-06T09:07:31.905Z,36.35
2022-11-06T09:09:33.864Z,30.95
2022-11-06T09:11:35.695Z,33.05
2022-11-06T09:13:38.105Z,25.15
2022-11-06T09:15:40.239Z,28.43
2022-11-06T09:17:50.166Z,30.15
2022-11-06T09:19:52.796Z,41.20
2022-11-06T09:21:55.161Z,27.85
2022-11-06T09:23:57.095Z,26.15
2022-11-06T09:25:59.338Z,27.65
2022-11-06T09:28:01.337Z,26.98
2022-11-06T09:30:03.299Z,29.63
2022-11-06T09:32:05.499Z,27.17
2022-11-06T09:34:07.394Z,28.15
2022-11-06T09:36:09.469Z,27.83
2022-11-06T09:38:13.030Z,26.20
2022-11-06T09:40:27.030Z,22.98
2022-11-06T09:42:38.923Z,23.10
2022-11-06T09:44:59.687Z,21.60
2022-11-06T09:47:12.448Z,30.05
2022-11-06T09:49:34.189Z,25.10
2022-11-06T09:51:48.122Z,24.85
2022-11-06T09:54:03.119Z,25.20
2022-11-06T09:56:06.621Z,28.67
2022-11-06T09:58:16.577Z,24.45
2022-11-06T10:00:19.203Z,28.38
2022-11-06T10:02:42.071Z,27.80
2022-11-06T10:04:58.844Z,29.52
2022-11-06T10:07:00.973Z,31.08
2022-11-06T10:09:06.764Z,25.07
2022-11-06T10:11:14.920Z,26.30
2022-11-06T10:13:37.877Z,27.95
2022-11-06T10:15:56.590Z,25.50
2022-11-06T10:17:58.772Z,29.92
2022-11-06T10:20:26.481Z,27.60
2022-11-06T10:22:48.100Z,36.13
2022-11-06T10:24:56.465Z,28.52
2022-11-06T10:26:58.531Z,26.23
2022-11-06T10:29:19.695Z,27.37
2022-11-06T10:31:43.757Z,26.40
2022-11-06T10:34:10.685Z,29.25
2022-11-06T10:36:25.995Z,28.83
2022-11-06T10:38:32.942Z,24.85
2022-11-06T10:40:35.544Z,21.92
2022-11-06T10:42:39.913Z,23.48
2022-11-06T10:44:50.139Z,25.80
2022-11-06T10:46:59.184Z,32.30
2022-11-06T10:49:05.009Z,25.92
2022-11-06T10:51:16.622Z,28.08
2022-11-06T10:53:40.392Z,28.88
2022-11-06T10:56:21.081Z,31.42
2022-11-06T10:58:29.173Z,28.58
2022-11-06T11:00:32.275Z,31.88
2022-11-06T11:02:39.442Z,32.03
2022-11-06T11:04:44.273Z,27.67
2022-11-06T11:06:46.180Z,31.15
2022-11-06T11:08:50.322Z,31.75
2022-11-06T11:11:04.407Z,29.80
2022-11-06T11:13:20.610Z,32.50
2022-11-06T11:15:28.241Z,33.20
2022-11-06T11:17:30.506Z,30.10
2022-11-06T11:19:38.301Z,31.20
2022-11-06T11:21:52.935Z,34.80
2022-11-06T11:24:05.713Z,46.40
2022-11-06T11:26:29.032Z,44.33
2022-11-06T11:28:34.383Z,30.98
2022-11-06T11:30:37.170Z,32.45
2022-11-06T11:32:39.013Z,32.35
2022-11-06T11:34:51.420Z,31.20
2022-11-06T11:37:08.160Z,34.95
2022-11-06T11:39:10.427Z,32.72
2022-11-06T11:41:21.583Z,30.92
2022-11-06T11:43:30.674Z,37.83
2022-11-06T11:45:32.587Z,41.70
2022-11-06T11:47:36.000Z,28.50
2022-11-06T11:49:38.178Z,25.98
2022-11-06T11:51:47.102Z,32.40
2022-11-06T11:53:49.208Z,33.60
2022-11-06T11:55:53.123Z,36.20
2022-11-06T11:57:59.283Z,37.15
2022-11-06T12:00:06.399Z,36.90
2022-11-06T12:02:36.417Z,34.47
2022-11-06T12:04:43.738Z,37.88
2022-11-06T12:06:55.460Z,37.85
2022-11-06T12:08:57.723Z,28.45
2022-11-06T12:11:04.582Z,33.47
2022-11-06T12:13:21.025Z,35.03
2022-11-06T12:15:38.141Z,38.65
2022-11-06T12:17:41.982Z,42.83
2022-11-06T12:19:51.927Z,38.63
2022-11-06T12:22:00.750Z,36.25
2022-11-06T12:24:23.378Z,34.47
2022-11-06T12:26:34.456Z,44.03
2022-11-06T12:28:39.922Z,39.03
2022-11-06T12:30:44.133Z,36.67
2022-11-06T12:32:49.248Z,35.22
2022-11-06T12:35:10.063Z,38.58
2022-11-06T12:37:40.478Z,42.78
2022-11-06T12:39:47.640Z,35.70
2022-11-06T12:41:50.809Z,38.90
2022-11-06T12:43:53.884Z,30.83
2022-11-06T12:48:30.599Z,30.52
2022-11-06T12:50:47.102Z,32.58
2022-11-06T12:53:10.235Z,32.40
2022-11-06T12:55:14.672Z,31.75
2022-11-06T12:57:28.408Z,36.72
2022-11-06T12:59:43.016Z,26.80
2022-11-06T13:02:02.521Z,29.27
2022-11-06T13:04:07.526Z,28.73
2022-11-06T13:06:33.141Z,32.38
2022-11-06T13:09:17.848Z,29.88
2022-11-06T13:11:41.575Z,27.92
2022-11-06T13:14:00.069Z,24.08
2022-11-06T13:16:07.643Z,22.90
2022-11-06T13:18:15.917Z,21.95
2022-11-06T13:20:32.807Z,24.08
2022-11-06T13:22:42.571Z,25.30
2022-11-06T13:25:12.821Z,24.92
2022-11-06T13:27:19.425Z,17.23
2022-11-06T13:29:24.462Z,21.15
2022-11-06T13:31:39.215Z,16.67
2022-11-06T13:33:49.327Z,19.38
2022-11-06T13:35:51.764Z,24.13
2022-11-06T13:37:56.223Z,22.48
2022-11-06T13:40:10.482Z,16.92
2022-11-06T13:42:27.029Z,17.25
2022-11-06T13:44:30.463Z,18.55
2022-11-06T13:46:35.250Z,18.05
2022-11-06T13:49:02.149Z,19.08
2022-11-06T13:51:14.586Z,20.70
2022-11-06T13:53:37.477Z,17.33
2022-11-06T13:56:01.228Z,18.48
2022-11-06T13:58:16.229Z,17.75
2022-11-06T14:00:20.609Z,16.35
2022-11-06T14:02:34.687Z,11.60
2022-11-06T14:05:14.706Z,12.88
2022-11-06T14:07:17.954Z,14.80
2022-11-06T14:09:23.274Z,18.58
2022-11-06T14:11:29.101Z,15.75
2022-11-06T14:13:36.551Z,16.50
2022-11-06T14:15:41.811Z,14.02
2022-11-06T14:17:58.636Z,20.90
2022-11-06T14:20:06.042Z,21.10
2022-11-06T14:22:23.654Z,16.55
2022-11-06T14:24:36.163Z,20.10
2022-11-06T14:26:46.790Z,16.45
2022-11-06T14:28:48.770Z,17.90
2022-11-06T14:31:11.704Z,19.15
2022-11-06T14:33:44.831Z,16.27
2022-11-06T14:37:49.079Z,50.28
2022-11-06T14:39:57.012Z,33.72
2022-11-06T14:41:59.657Z,22.85
2022-11-06T14:46:21.927Z,23.98
2022-11-06T14:48:28.158Z,16.25
2022-11-06T14:50:40.651Z,29.30
2022-11-06T14:52:47.615Z,26.23
2022-11-06T14:55:05.568Z,28.25
2022-11-06T14:57:15.399Z,28.23
2022-11-06T14:59:41.985Z,28.73
2022-11-06T15:02:19.606Z,31.50
2022-11-06T15:04:24.913Z,28.75
2022-11-06T15:06:29.780Z,27.40
2022-11-06T15:08:57.843Z,29.10
2022-11-06T15:11:00.128Z,27.38
2022-11-06T15:13:12.374Z,31.08
2022-11-06T15:15:20.121Z,28.25
2022-11-06T15:17:24.059Z,33.95
2022-11-06T15:19:37.843Z,33.67
2022-11-06T15:21:45.679Z,34.00
2022-11-06T15:24:06.125Z,29.05
2022-11-06T15:26:27.467Z,30.52
2022-11-06T15:28:38.206Z,28.77
2022-11-06T15:30:49.782Z,30.20
2022-11-06T15:32:54.192Z,28.13
2022-11-06T15:35:06.226Z,29.23
2022-11-06T15:37:14.191Z,27.67
2022-11-06T15:39:56.016Z,33.38
2022-11-06T15:42:01.450Z,32.92
2022-11-06T15:44:05.011Z,33.63
2022-11-06T15:46:12.876Z,35.88
2022-11-06T15:48:23.963Z,32.88
2022-11-06T15:50:35.069Z,32.72
2022-11-06T15:52:37.115Z,31.33
2022-11-06T15:54:44.125Z,36.83
2022-11-06T15:56:48.981Z,30.67
2022-11-06T15:59:14.730Z,32.33
2022-11-06T16:01:32.200Z,32.38
2022-11-06T16:03:52.133Z,31.02
2022-11-06T16:05:58.750Z,31.17
2022-11-06T16:08:01.307Z,35.40
2022-11-06T16:10:04.474Z,35.13
2022-11-06T16:12:06.679Z,38.03
2022-11-06T16:14:12.878Z,34.25
2022-11-06T16:16:38.599Z,34.53
2022-11-06T16:18:44.231Z,29.73
2022-11-06T16:20:51.257Z,32.08
2022-11-06T16:22:53.578Z,36.40
2022-11-06T16:25:04.862Z,35.42
2022-11-06T16:27:07.239Z,37.50
2022-11-06T16:29:20.081Z,37.38
2022-11-06T16:31:28.161Z,42.75
2022-11-06T16:33:30.226Z,43.08
2022-11-06T16:35:36.931Z,43.88
2022-11-06T16:37:39.706Z,41.05
2022-11-06T16:39:52.609Z,40.35
2022-11-06T16:41:57.989Z,42.72
2022-11-06T16:44:43.810Z,49.65
2022-11-06T16:47:10.161Z,45.80
2022-11-06T16:49:33.650Z,49.15
2022-11-06T16:51:35.812Z,37.08
2022-11-06T16:53:57.292Z,37.55
2022-11-06T16:56:06.029Z,42.40
2022-11-06T16:58:16.627Z,37.45
2022-11-06T17:00:21.537Z,38.80
2022-11-06T17:02:27.529Z,36.63
2022-11-06T17:04:30.039Z,42.70
2022-11-06T17:06:34.446Z,38.95
2022-11-06T17:08:40.041Z,41.65
2022-11-06T17:10:43.392Z,35.53
2022-11-06T17:12:45.318Z,36.38
2022-11-06T17:14:48.543Z,43.15
2022-11-06T17:16:57.815Z,36.88
2022-11-06T17:19:00.039Z,42.30
2022-11-06T17:21:11.661Z,35.58
2022-11-06T17:23:16.230Z,38.25
2022-11-06T17:25:18.504Z,35.53
2022-11-06T17:27:20.901Z,40.55
2022-11-06T17:29:22.767Z,33.33
2022-11-06T17:31:25.692Z,36.17
2022-11-06T17:33:28.066Z,30.40
2022-11-06T17:35:29.979Z,35.78
2022-11-06T17:37:31.782Z,38.00
2022-11-06T17:39:34.267Z,31.90
2022-11-06T17:41:36.100Z,36.27
2022-11-06T17:43:38.152Z,41.42
2022-11-06T17:45:44.469Z,32.08
2022-11-06T17:47:46.412Z,33.92
2022-11-06T17:49:48.878Z,32.60
2022-11-06T17:51:53.593Z,34.05
2022-11-06T17:53:55.776Z,31.80
2022-11-06T17:55:57.625Z,36.53
2022-11-06T17:57:59.828Z,36.10
2022-11-06T18:00:01.717Z,37.88
2022-11-06T18:02:04.044Z,33.22
2022-11-06T18:04:09.529Z,40.53
2022-11-06T18:06:13.022Z,36.38
2022-11-06T18:08:15.582Z,31.10
2022-11-06T18:10:18.355Z,35.95
2022-11-06T18:12:22.598Z,31.27
2022-11-06T18:14:26.587Z,31.17
2022-11-06T18:16:32.376Z,33.10
2022-11-06T18:18:35.130Z,38.35
2022-11-06T18:20:37.026Z,31.58
2022-11-06T18:22:39.594Z,39.33
2022-11-06T18:24:41.785Z,33.80
2022-11-06T18:26:44.610Z,34.08
2022-11-06T18:28:47.730Z,34.17
2022-11-06T18:30:50.259Z,32.45
2022-11-06T18:32:52.250Z,33.33
2022-11-06T18:34:54.703Z,30.55
2022-11-06T18:36:56.569Z,30.70
2022-11-06T18:38:58.736Z,32.83
2022-11-06T18:41:12.546Z,35.28
2022-11-06T18:43:14.731Z,34.83
2022-11-06T18:45:16.574Z,34.58
2022-11-06T18:47:19.133Z,33.58
2022-11-06T18:49:20.985Z,37.13
2022-11-06T18:51:34.476Z,29.38
2022-11-06T18:53:39.241Z,34.42
2022-11-06T18:55:46.042Z,36.58
2022-11-06T18:57:47.919Z,32.38
2022-11-06T18:59:50.249Z,33.67
2022-11-06T19:01:53.201Z,39.60
2022-11-06T19:03:55.732Z,39.75
2022-11-06T19:05:58.062Z,53.22
2022-11-06T19:08:00.846Z,36.60
2022-11-06T19:10:02.993Z,37.65
2022-11-06T19:12:05.670Z,36.72
2022-11-06T19:14:08.179Z,35.10
2022-11-06T19:16:12.338Z,32.55
2022-11-06T19:18:15.770Z,42.35
2022-11-06T19:20:17.808Z,36.65
2022-11-06T19:22:19.773Z,36.03
2022-11-06T19:24:22.166Z,36.67
2022-11-06T19:26:30.484Z,33.50
2022-11-06T19:28:35.861Z,31.38
2022-11-06T19:30:38.451Z,38.35
2022-11-06T19:32:40.901Z,35.13
2022-11-06T19:34:42.876Z,27.88
2022-11-06T19:36:45.067Z,30.70
2022-11-06T19:38:46.920Z,29.00
2022-11-06T19:41:00.306Z,29.17
2022-11-06T19:43:04.026Z,27.08
2022-11-06T19:45:06.318Z,25.70
2022-11-06T19:47:08.241Z,32.15
2022-11-06T19:49:10.639Z,31.85
2022-11-06T19:51:15.652Z,51.60
2022-11-06T19:53:21.825Z,59.67
2022-11-06T19:55:24.976Z,34.03
2022-11-06T19:57:30.549Z,29.63
2022-11-06T19:59:32.582Z,43.55
2022-11-06T20:01:35.009Z,41.78
2022-11-06T20:03:37.329Z,30.80
2022-11-06T20:05:40.460Z,38.60
2022-11-06T20:07:42.747Z,39.55
2022-11-06T20:09:44.765Z,34.20
2022-11-06T20:11:46.591Z,31.15
2022-11-06T20:13:48.799Z,33.47
2022-11-06T20:15:50.619Z,56.92
2022-11-06T20:17:52.651Z,43.58
2022-11-06T20:19:54.856Z,44.40
2022-11-06T20:21:56.740Z,35.17
2022-11-06T20:23:58.574Z,39.90
2022-11-06T20:26:01.378Z,43.05
2022-11-06T20:28:03.933Z,38.33
2022-11-06T20:30:07.460Z,39.17
2022-11-06T20:32:09.862Z,44.35
2022-11-06T20:34:12.058Z,40.58
2022-11-06T20:36:17.173Z,41.65
2022-11-06T20:38:19.372Z,48.53
2022-11-06T20:40:21.303Z,41.05
2022-11-06T20:42:23.353Z,39.38
2022-11-06T20:44:25.519Z,51.05
2022-11-06T20:46:27.654Z,47.20
2022-11-06T20:48:30.617Z,43.92
2022-11-06T20:50:33.351Z,45.60
2022-11-06T20:52:35.606Z,44.08
2022-11-06T20:54:40.079Z,48.05
2022-11-06T20:56:45.093Z,46.83
2022-11-06T20:58:47.649Z,47.92
2022-11-06T21:00:49.686Z,45.20
2022-11-06T21:02:55.207Z,46.28
2022-11-06T21:04:59.603Z,45.05
2022-11-06T21:07:01.497Z,49.60
2022-11-06T21:09:04.927Z,51.40
2022-11-06T21:11:08.639Z,52.08
2022-11-06T21:13:10.635Z,56.83
2022-11-06T21:15:13.060Z,58.60
2022-11-06T21:17:15.808Z,52.65
2022-11-06T21:19:17.649Z,56.50
2022-11-06T21:21:23.751Z,54.70
2022-11-06T21:23:25.575Z,49.22
2022-11-06T21:25:28.025Z,51.87
2022-11-06T21:27:30.804Z,54.92
2022-11-06T21:29:32.653Z,58.08
2022-11-06T21:31:35.043Z,53.70
2022-11-06T21:35:43.540Z,57.00
2022-11-06T21:37:45.415Z,55.33
2022-11-06T21:39:48.066Z,65.00
2022-11-06T21:41:49.951Z,61.58
2022-11-06T21:43:52.061Z,64.55
2022-11-06T21:45:54.314Z,59.20
2022-11-06T21:47:56.190Z,66.10
2022-11-06T21:49:58.102Z,66.15
2022-11-06T21:52:23.882Z,67.90
2022-11-06T21:54:47.217Z,67.25
2022-11-06T21:56:50.538Z,72.18
2022-11-06T21:58:54.800Z,69.00
2022-11-06T22:00:56.775Z,77.40
2022-11-06T22:02:58.770Z,74.30
2022-11-06T22:05:01.169Z,66.38
2022-11-06T22:07:03.032Z,77.30
2022-11-06T22:09:04.963Z,73.97
2022-11-06T22:11:14.922Z,66.90
2022-11-06T22:13:16.921Z,69.05
2022-11-06T22:15:19.188Z,80.67
2022-11-06T22:17:21.474Z,74.10
2022-11-06T22:19:23.516Z,60.92
2022-11-06T22:21:27.996Z,65.40
2022-11-06T22:23:30.305Z,68.55
2022-11-06T22:25:32.337Z,66.03
2022-11-06T22:27:39.656Z,67.15
2022-11-06T22:29:43.429Z,65.63
2022-11-06T22:31:45.332Z,67.18
2022-11-06T22:33:52.372Z,68.25
2022-11-06T22:36:07.590Z,69.85
2022-11-06T22:38:11.021Z,66.97
2022-11-06T22:40:12.921Z,67.70
2022-11-06T22:42:15.444Z,72.03
2022-11-06T22:44:17.476Z,74.13
2022-11-06T22:46:23.270Z,72.50
2022-11-06T22:48:25.923Z,71.32
2022-11-06T22:50:27.778Z,71.57
2022-11-06T22:52:29.627Z,75.60
2022-11-06T22:54:31.868Z,64.70
2022-11-06T22:56:34.088Z,71.80
2022-11-06T22:58:35.992Z,74.82
2022-11-06T23:00:38.228Z,72.97
2022-11-06T23:02:40.102Z,71.50
2022-11-06T23:04:42.062Z,74.65
2022-11-06T23:06:45.315Z,74.60
2022-11-06T23:08:47.434Z,77.63
2022-11-06T23:10:49.410Z,81.43
2022-11-06T23:12:51.851Z,83.00
2022-11-06T23:14:53.771Z,84.63
2022-11-06T23:16:58.942Z,85.60
2022-11-06T23:19:01.122Z,83.18
2022-11-06T23:21:10.389Z,81.63
2022-11-06T23:23:12.394Z,84.30
2022-11-06T23:25:14.897Z,91.35
2022-11-06T23:27:16.749Z,91.03
2022-11-06T23:29:18.723Z,90.20
2022-11-06T23:31:21.335Z,94.35
2022-11-06T23:33:23.150Z,100.88
2022-11-06T23:35:29.384Z,96.60
2022-11-06T23:37:33.420Z,93.40
2022-11-06T23:39:35.254Z,96.97
2022-11-06T23:41:42.994Z,100.75
2022-11-06T23:43:49.270Z,97.43
2022-11-06T23:45:51.609Z,102.65
2022-11-06T23:47:53.500Z,97.18
2022-11-06T23:49:55.985Z,114.32
2022-11-06T23:51:58.103Z,109.77
2022-11-06T23:54:00.399Z,108.80
2022-11-06T23:56:07.018Z,103.05
2022-11-06T23:58:09.118Z,102.60
